Time;durP1;ratioP1;P1;durP2;ratioP2;P2;SDS_P1;SDS_P2;PMS_P1;PMS_P2;Temp;Humidity;BMP_temperature;BMP_pressure;BME280_temperature;BME280_humidity;BME280_pressure;Samples;Min_cycle;Max_cycle;Signal;HPM_P1;HPM_P2
2023/09/29 00:00:40;;;;;;;;;3.00;2.00;;;;;;;;5092819;28;45437;-82
2023/09/29 00:03:08;;;;;;;;;1.50;1.50;;;;;;;;5078513;27;45618;-82
2023/09/29 00:05:33;;;;;;;;;3.25;3.25;;;;;;;;5099309;28;45641;-82
2023/09/29 00:07:58;;;;;;;;;3.50;3.00;;;;;;;;5095796;28;45600;-84
2023/09/29 00:10:24;;;;;;;;;5.25;4.00;;;;;;;;5092102;27;45836;-82
2023/09/29 00:12:49;;;;;;;;;4.00;2.00;;;;;;;;5100245;27;45566;-82
2023/09/29 00:15:16;;;;;;;;;4.00;3.00;;;;;;;;5100445;27;45059;-83
2023/09/29 00:17:42;;;;;;;;;5.00;4.00;;;;;;;;5113416;27;45346;-83
2023/09/29 00:20:26;;;;;;;;;3.25;3.25;;;;;;;;5102618;27;44813;-83
2023/09/29 00:22:52;;;;;;;;;4.00;3.00;;;;;;;;5103995;27;44765;-83
2023/09/29 00:25:17;;;;;;;;;2.50;2.25;;;;;;;;5097805;27;45250;-84
2023/09/29 00:27:43;;;;;;;;;4.00;3.25;;;;;;;;5094936;27;44793;-82
2023/09/29 00:30:12;;;;;;;;;2.75;2.00;;;;;;;;5104121;27;45254;-81
2023/09/29 00:32:45;;;;;;;;;5.00;4.00;;;;;;;;5105307;27;47002;-83
2023/09/29 00:35:11;;;;;;;;;5.25;4.00;;;;;;;;5099831;27;47083;-82
2023/09/29 00:37:36;;;;;;;;;3.25;3.25;;;;;;;;5102179;27;45596;-83
2023/09/29 00:40:02;;;;;;;;;5.25;3.25;;;;;;;;5097481;27;44804;-84
2023/09/29 00:42:27;;;;;;;;;4.00;3.00;;;;;;;;5099709;27;44775;-84
2023/09/29 00:44:53;;;;;;;;;3.75;3.75;;;;;;;;5097135;27;45034;-83
2023/09/29 00:47:18;;;;;;;;;4.50;3.00;;;;;;;;5110938;27;45404;-83
2023/09/29 00:49:46;;;;;;;;;6.75;4.00;;;;;;;;5081530;28;45297;-83
2023/09/29 00:52:12;;;;;;;;;4.75;4.75;;;;;;;;5082787;27;45668;-83
2023/09/29 00:54:38;;;;;;;;;2.00;2.00;;;;;;;;5087807;27;46488;-82
2023/09/29 00:57:05;;;;;;;;;3.00;2.50;;;;;;;;5085792;27;45322;-84
2023/09/29 00:59:31;;;;;;;;;3.50;3.50;;;;;;;;5072597;28;44792;-83
2023/09/29 01:01:57;;;;;;;;;4.25;3.50;;;;;;;;5098632;27;45913;-82
2023/09/29 01:04:23;;;;;;;;;4.00;4.00;;;;;;;;5099132;27;45708;-83
2023/09/29 01:06:50;;;;;;;;;5.00;5.00;;;;;;;;5099070;27;45192;-83
2023/09/29 01:09:16;;;;;;;;;3.50;2.75;;;;;;;;5096328;27;45523;-83
2023/09/29 01:11:43;;;;;;;;;4.25;2.75;;;;;;;;5101264;27;45534;-84
2023/09/29 01:14:09;;;;;;;;;7.00;4.00;;;;;;;;5082508;27;46726;-84
2023/09/29 01:16:36;;;;;;;;;4.50;3.25;;;;;;;;5083549;27;45478;-82
2023/09/29 01:19:02;;;;;;;;;3.25;2.00;;;;;;;;5094702;27;45296;-75
2023/09/29 01:21:30;;;;;;;;;5.00;4.00;;;;;;;;5088605;27;45512;-76
2023/09/29 01:23:55;;;;;;;;;6.00;5.00;;;;;;;;5084681;27;45374;-76
2023/09/29 01:26:21;;;;;;;;;6.50;5.00;;;;;;;;5090628;27;45400;-77
2023/09/29 01:28:47;;;;;;;;;4.00;4.00;;;;;;;;5091747;27;45811;-76
2023/09/29 01:31:12;;;;;;;;;4.00;4.00;;;;;;;;5088085;27;47020;-77
2023/09/29 01:33:39;;;;;;;;;4.50;3.75;;;;;;;;5091983;27;45716;-77
2023/09/29 01:36:05;;;;;;;;;3.00;3.00;;;;;;;;5093838;27;44845;-76
2023/09/29 01:38:30;;;;;;;;;2.25;2.25;;;;;;;;5082535;27;45811;-76
2023/09/29 01:40:55;;;;;;;;;7.00;4.25;;;;;;;;5086721;27;46015;-76
2023/09/29 01:43:23;;;;;;;;;5.00;3.75;;;;;;;;5083786;27;45812;-74
2023/09/29 01:45:48;;;;;;;;;3.50;3.00;;;;;;;;5083549;27;45787;-76
2023/09/29 01:48:14;;;;;;;;;3.50;3.00;;;;;;;;5082270;27;45841;-75
2023/09/29 01:50:40;;;;;;;;;3.00;3.00;;;;;;;;5086977;27;45429;-75
2023/09/29 01:53:06;;;;;;;;;3.25;3.25;;;;;;;;5098600;27;45475;-76
2023/09/29 01:55:32;;;;;;;;;0.50;0.00;;;;;;;;5094030;27;46204;-75
2023/09/29 01:57:57;;;;;;;;;2.50;2.50;;;;;;;;5092843;27;45884;-77
2023/09/29 02:00:28;;;;;;;;;5.75;3.75;;;;;;;;5092724;27;46213;-75
2023/09/29 02:02:54;;;;;;;;;5.75;4.00;;;;;;;;5099080;27;45562;-75
2023/09/29 02:05:20;;;;;;;;;5.00;4.00;;;;;;;;5100216;27;45833;-76
2023/09/29 02:07:46;;;;;;;;;4.00;4.00;;;;;;;;5097209;27;45545;-76
2023/09/29 02:10:11;;;;;;;;;4.00;4.00;;;;;;;;5099590;27;45871;-76
2023/09/29 02:12:57;;;;;;;;;4.00;2.50;;;;;;;;5101789;27;47170;-76
2023/09/29 02:15:22;;;;;;;;;3.75;3.75;;;;;;;;5084259;27;45362;-76
2023/09/29 02:17:48;;;;;;;;;3.00;3.00;;;;;;;;5089607;27;45597;-74
2023/09/29 02:20:15;;;;;;;;;3.00;2.00;;;;;;;;5091993;27;45376;-75
2023/09/29 02:22:41;;;;;;;;;4.00;3.00;;;;;;;;5080013;27;45554;-74
2023/09/29 02:25:06;;;;;;;;;3.25;3.00;;;;;;;;5090306;27;45432;-76
2023/09/29 02:27:32;;;;;;;;;3.25;2.00;;;;;;;;5093860;27;45348;-75
2023/09/29 02:29:57;;;;;;;;;1.75;1.75;;;;;;;;5085234;27;45264;-75
2023/09/29 02:32:22;;;;;;;;;2.00;2.00;;;;;;;;5080837;27;47936;-75
2023/09/29 02:34:48;;;;;;;;;2.00;2.00;;;;;;;;5095334;27;45354;-74
2023/09/29 02:37:13;;;;;;;;;2.00;2.00;;;;;;;;5096964;27;45757;-76
2023/09/29 02:39:38;;;;;;;;;2.00;2.00;;;;;;;;5087666;27;45378;-76
2023/09/29 02:42:04;;;;;;;;;2.25;2.25;;;;;;;;5099741;27;45360;-75
2023/09/29 02:44:33;;;;;;;;;3.25;0.75;;;;;;;;5103916;27;45472;-78
2023/09/29 02:46:58;;;;;;;;;2.00;2.00;;;;;;;;5086315;27;45387;-75
2023/09/29 02:49:23;;;;;;;;;2.00;2.00;;;;;;;;5084910;27;45461;-74
2023/09/29 02:51:49;;;;;;;;;3.50;1.50;;;;;;;;5084898;27;45508;-76
2023/09/29 02:54:14;;;;;;;;;2.75;2.75;;;;;;;;5082267;27;44823;-77
2023/09/29 02:56:40;;;;;;;;;1.25;1.00;;;;;;;;5081819;27;45448;-75
2023/09/29 02:59:05;;;;;;;;;1.00;1.00;;;;;;;;5080314;27;45745;-75
2023/09/29 03:01:31;;;;;;;;;2.75;2.00;;;;;;;;5092988;27;45876;-76
2023/09/29 03:03:58;;;;;;;;;2.00;1.00;;;;;;;;5080948;27;45425;-76
2023/09/29 03:06:24;;;;;;;;;1.75;1.75;;;;;;;;5080098;27;45805;-74
2023/09/29 03:08:57;;;;;;;;;1.75;1.75;;;;;;;;5076808;27;45448;-76
2023/09/29 03:11:25;;;;;;;;;1.00;1.00;;;;;;;;5096222;27;45465;-76
2023/09/29 03:13:50;;;;;;;;;2.50;1.25;;;;;;;;5085023;27;45400;-75
2023/09/29 03:16:18;;;;;;;;;1.00;1.00;;;;;;;;5091872;27;46416;-75
2023/09/29 03:18:43;;;;;;;;;3.25;2.00;;;;;;;;5083942;27;45434;-74
2023/09/29 03:21:09;;;;;;;;;1.00;1.00;;;;;;;;5077714;27;46980;-77
2023/09/29 03:23:35;;;;;;;;;2.50;1.50;;;;;;;;5085493;27;45392;-77
2023/09/29 03:26:01;;;;;;;;;3.75;2.75;;;;;;;;5093763;27;44872;-76
2023/09/29 03:28:26;;;;;;;;;1.50;1.00;;;;;;;;5095514;27;46262;-76
2023/09/29 03:30:51;;;;;;;;;4.50;3.00;;;;;;;;5078302;28;45334;-76
2023/09/29 03:33:17;;;;;;;;;1.50;1.50;;;;;;;;5092795;27;45349;-76
2023/09/29 03:35:42;;;;;;;;;2.25;2.00;;;;;;;;5095515;27;45643;-77
2023/09/29 03:38:08;;;;;;;;;2.25;2.25;;;;;;;;5085307;27;45596;-76
2023/09/29 03:40:33;;;;;;;;;2.00;2.00;;;;;;;;5092010;27;45592;-76
2023/09/29 03:42:59;;;;;;;;;2.25;2.00;;;;;;;;5100667;27;45046;-76
2023/09/29 03:45:25;;;;;;;;;2.00;1.50;;;;;;;;5103202;27;45786;-76
2023/09/29 03:47:51;;;;;;;;;0.00;0.00;;;;;;;;5090745;27;45830;-75
2023/09/29 03:50:16;;;;;;;;;4.50;3.00;;;;;;;;5087181;27;45394;-77
2023/09/29 03:52:42;;;;;;;;;5.25;2.50;;;;;;;;5089552;27;45404;-76
2023/09/29 03:55:09;;;;;;;;;2.00;2.00;;;;;;;;5085403;27;45920;-76
2023/09/29 03:57:37;;;;;;;;;3.75;2.50;;;;;;;;5081197;27;47199;-77
2023/09/29 04:00:02;;;;;;;;;3.75;2.75;;;;;;;;5085538;27;45512;-77
2023/09/29 04:02:27;;;;;;;;;4.25;2.50;;;;;;;;5086688;27;45422;-76
2023/09/29 04:04:53;;;;;;;;;2.00;2.00;;;;;;;;5084763;27;45386;-76
2023/09/29 04:07:19;;;;;;;;;2.00;2.00;;;;;;;;5086931;27;45531;-77
2023/09/29 04:09:44;;;;;;;;;2.00;2.00;;;;;;;;5085618;27;45452;-75
2023/09/29 04:12:10;;;;;;;;;3.50;2.00;;;;;;;;5086071;27;45597;-75
2023/09/29 04:14:35;;;;;;;;;4.00;2.00;;;;;;;;5080810;28;45398;-76
2023/09/29 04:17:01;;;;;;;;;3.50;2.00;;;;;;;;5087582;27;45984;-76
2023/09/29 04:19:26;;;;;;;;;2.75;1.50;;;;;;;;5084227;27;47075;-77
2023/09/29 04:21:51;;;;;;;;;4.75;2.50;;;;;;;;5082675;27;44827;-76
2023/09/29 04:24:16;;;;;;;;;3.00;3.00;;;;;;;;5083663;27;45766;-76
2023/09/29 04:26:41;;;;;;;;;4.25;3.50;;;;;;;;5079267;27;45900;-77
2023/09/29 04:29:07;;;;;;;;;4.00;2.25;;;;;;;;5079647;27;45632;-77
2023/09/29 04:31:32;;;;;;;;;3.50;2.50;;;;;;;;5081286;27;45642;-75
2023/09/29 04:33:57;;;;;;;;;3.00;2.00;;;;;;;;5079673;27;45748;-76
2023/09/29 04:36:23;;;;;;;;;4.00;2.00;;;;;;;;5078322;27;45681;-78
2023/09/29 04:38:48;;;;;;;;;9.00;9.00;;;;;;;;5086456;27;46757;-77
2023/09/29 04:41:15;;;;;;;;;2.50;1.50;;;;;;;;5088598;27;45266;-77
2023/09/29 04:43:40;;;;;;;;;5.67;4.67;;;;;;;;5103316;27;45368;-78
2023/09/29 04:46:05;;;;;;;;;5.50;3.00;;;;;;;;5099472;27;45475;-75
2023/09/29 04:48:30;;;;;;;;;3.00;3.00;;;;;;;;5081606;28;45796;-77
2023/09/29 04:50:56;;;;;;;;;4.00;4.00;;;;;;;;5085975;27;44866;-75
2023/09/29 04:53:21;;;;;;;;;3.25;3.25;;;;;;;;5085268;27;45412;-76
2023/09/29 04:55:46;;;;;;;;;2.00;2.00;;;;;;;;5086182;27;44830;-78
2023/09/29 04:58:12;;;;;;;;;1.50;1.50;;;;;;;;5079382;27;46795;-77
2023/09/29 05:00:37;;;;;;;;;4.75;3.00;;;;;;;;5075493;27;45321;-77
2023/09/29 05:03:03;;;;;;;;;6.50;4.00;;;;;;;;5079244;27;45507;-77
2023/09/29 05:05:28;;;;;;;;;5.00;2.75;;;;;;;;5084189;27;45744;-77
2023/09/29 05:07:53;;;;;;;;;2.00;2.00;;;;;;;;5080903;27;46444;-78
2023/09/29 05:10:19;;;;;;;;;8.75;4.75;;;;;;;;5080703;27;44875;-76
2023/09/29 05:12:45;;;;;;;;;6.50;5.50;;;;;;;;5078626;27;45989;-78
2023/09/29 05:15:10;;;;;;;;;7.50;5.00;;;;;;;;5091829;27;45480;-77
2023/09/29 05:17:38;;;;;;;;;5.25;3.00;;;;;;;;5080645;27;47367;-83
2023/09/29 05:20:05;;;;;;;;;3.25;3.25;;;;;;;;5072662;28;45784;-82
2023/09/29 05:22:31;;;;;;;;;5.25;3.75;;;;;;;;5083400;27;45126;-79
2023/09/29 05:24:57;;;;;;;;;3.00;3.00;;;;;;;;5085540;27;45759;-80
2023/09/29 05:27:22;;;;;;;;;3.25;2.00;;;;;;;;5090607;27;46382;-79
2023/09/29 05:29:47;;;;;;;;;3.00;3.00;;;;;;;;5086340;27;44728;-78
2023/09/29 05:32:12;;;;;;;;;3.75;3.25;;;;;;;;5089149;27;45716;-78
2023/09/29 05:34:38;;;;;;;;;4.00;2.75;;;;;;;;5089217;27;46636;-78
2023/09/29 05:37:04;;;;;;;;;7.25;5.00;;;;;;;;5079733;28;45334;-79
2023/09/29 05:39:29;;;;;;;;;5.25;3.75;;;;;;;;5077975;27;45662;-78
2023/09/29 05:41:54;;;;;;;;;3.75;3.75;;;;;;;;5092259;27;45993;-79
2023/09/29 05:44:20;;;;;;;;;4.25;3.75;;;;;;;;5090645;27;46008;-80
2023/09/29 05:46:45;;;;;;;;;4.00;4.00;;;;;;;;5085530;27;45456;-79
2023/09/29 05:49:11;;;;;;;;;7.00;5.00;;;;;;;;5089324;27;45641;-77
2023/09/29 05:51:36;;;;;;;;;5.00;3.75;;;;;;;;5087507;27;45700;-77
2023/09/29 05:54:03;;;;;;;;;7.50;5.50;;;;;;;;5079506;27;45259;-79
2023/09/29 05:56:31;;;;;;;;;7.75;3.25;;;;;;;;5081842;27;45424;-79
2023/09/29 05:58:56;;;;;;;;;6.25;5.75;;;;;;;;5091815;27;45750;-77
2023/09/29 06:01:22;;;;;;;;;6.50;6.25;;;;;;;;5096589;27;45411;-77
2023/09/29 06:03:47;;;;;;;;;6.00;6.00;;;;;;;;5085759;27;45850;-78
2023/09/29 06:06:13;;;;;;;;;8.00;5.25;;;;;;;;5083174;27;45573;-79
2023/09/29 06:08:38;;;;;;;;;4.00;3.00;;;;;;;;5089157;27;45737;-80
2023/09/29 06:11:21;;;;;;;;;6.00;5.75;;;;;;;;5095139;27;45442;-84
2023/09/29 06:13:50;;;;;;;;;8.25;5.50;;;;;;;;5083202;27;45224;-83
2023/09/29 06:16:16;;;;;;;;;15.00;5.25;;;;;;;;5083232;27;46675;-79
2023/09/29 06:18:41;;;;;;;;;6.25;4.75;;;;;;;;5081353;27;45372;-78
2023/09/29 06:21:07;;;;;;;;;8.50;6.50;;;;;;;;5081822;27;45328;-78
2023/09/29 06:23:32;;;;;;;;;7.25;7.00;;;;;;;;5089672;27;45502;-78
2023/09/29 06:25:58;;;;;;;;;7.75;5.75;;;;;;;;5085966;27;45849;-78
2023/09/29 06:28:26;;;;;;;;;10.25;5.75;;;;;;;;5074593;27;45856;-82
2023/09/29 06:30:59;;;;;;;;;10.25;7.00;;;;;;;;5079943;27;45754;-80
2023/09/29 06:43:05;;;;;;;;;8.75;3.00;;;;;;;;5086807;28;45701;-87
2023/09/29 06:49:25;;;;;;;;;6.25;4.25;;;;;;;;5043352;28;46462;-82
2023/09/29 06:58:03;;;;;;;;;7.25;2.75;;;;;;;;4970091;28;45924;-82
2023/09/29 07:00:31;;;;;;;;;8.75;5.75;;;;;;;;5063299;28;47280;-84
2023/09/29 07:02:57;;;;;;;;;6.50;4.75;;;;;;;;5096459;27;45395;-83
2023/09/29 07:05:26;;;;;;;;;6.75;6.25;;;;;;;;5094833;27;44772;-81
2023/09/29 07:07:55;;;;;;;;;4.75;4.25;;;;;;;;5094405;27;45722;-83
2023/09/29 07:10:24;;;;;;;;;5.00;3.00;;;;;;;;5089123;27;46936;-83
2023/09/29 07:12:49;;;;;;;;;6.25;3.25;;;;;;;;5085980;28;45093;-80
2023/09/29 07:15:14;;;;;;;;;7.75;4.50;;;;;;;;5085800;28;45709;-81
2023/09/29 07:17:41;;;;;;;;;7.50;4.50;;;;;;;;5089962;27;46492;-80
2023/09/29 07:20:06;;;;;;;;;6.75;3.25;;;;;;;;5086180;27;45730;-81
2023/09/29 07:22:32;;;;;;;;;6.50;3.75;;;;;;;;5089334;27;45440;-80
2023/09/29 07:24:57;;;;;;;;;4.50;3.50;;;;;;;;5091515;27;45642;-81
2023/09/29 07:27:23;;;;;;;;;4.00;4.00;;;;;;;;5082410;27;46046;-82
2023/09/29 07:29:49;;;;;;;;;6.25;4.75;;;;;;;;5084756;27;45102;-81
2023/09/29 07:32:15;;;;;;;;;6.25;4.00;;;;;;;;5083887;28;45324;-82
2023/09/29 07:34:41;;;;;;;;;8.50;5.75;;;;;;;;5072156;27;44804;-82
2023/09/29 07:37:06;;;;;;;;;6.00;4.00;;;;;;;;5083839;27;45829;-82
2023/09/29 07:39:32;;;;;;;;;5.75;4.50;;;;;;;;5090430;27;46575;-79
2023/09/29 07:41:57;;;;;;;;;7.50;5.50;;;;;;;;5085987;27;45515;-81
2023/09/29 07:44:23;;;;;;;;;10.50;4.00;;;;;;;;5092157;27;45401;-82
2023/09/29 07:46:52;;;;;;;;;5.25;2.75;;;;;;;;5091321;27;45858;-82
2023/09/29 07:49:19;;;;;;;;;3.75;2.00;;;;;;;;5103268;27;45548;-83
2023/09/29 07:51:44;;;;;;;;;2.50;2.50;;;;;;;;5089173;27;45356;-81
2023/09/29 07:54:11;;;;;;;;;3.50;3.50;;;;;;;;5086620;27;45332;-83
2023/09/29 07:56:39;;;;;;;;;5.75;1.25;;;;;;;;5087029;27;45844;-83
2023/09/29 07:59:10;;;;;;;;;2.00;2.00;;;;;;;;5084936;27;45634;-83
2023/09/29 08:01:39;;;;;;;;;3.00;1.00;;;;;;;;5086927;27;45493;-83
2023/09/29 08:04:31;;;;;;;;;2.75;2.75;;;;;;;;5088872;27;45660;-83
2023/09/29 08:07:01;;;;;;;;;1.25;1.25;;;;;;;;5090735;27;44889;-82
2023/09/29 08:09:45;;;;;;;;;0.50;0.50;;;;;;;;5077796;27;45446;-82
2023/09/29 08:12:14;;;;;;;;;2.75;0.00;;;;;;;;5087776;27;45664;-83
2023/09/29 08:14:39;;;;;;;;;2.00;0.50;;;;;;;;5088491;27;45628;-80
2023/09/29 08:17:05;;;;;;;;;1.50;1.25;;;;;;;;5081385;28;45762;-80
2023/09/29 08:19:33;;;;;;;;;2.50;1.50;;;;;;;;5095072;27;46294;-81
2023/09/29 08:21:58;;;;;;;;;1.25;0.75;;;;;;;;5099727;27;45413;-81
2023/09/29 08:24:24;;;;;;;;;3.50;1.75;;;;;;;;5101509;27;45767;-82
2023/09/29 08:26:49;;;;;;;;;0.25;0.00;;;;;;;;5090740;27;45476;-78
2023/09/29 08:29:16;;;;;;;;;0.00;0.00;;;;;;;;5086666;27;46335;-79
2023/09/29 08:31:45;;;;;;;;;0.00;0.00;;;;;;;;5088890;27;45415;-82
2023/09/29 08:34:14;;;;;;;;;0.00;0.00;;;;;;;;5094971;27;44764;-81
2023/09/29 08:36:39;;;;;;;;;1.00;1.00;;;;;;;;5085883;27;45811;-80
2023/09/29 08:39:04;;;;;;;;;0.00;0.00;;;;;;;;5083352;27;45843;-82
2023/09/29 08:41:35;;;;;;;;;0.50;0.50;;;;;;;;5083555;27;45762;-81
2023/09/29 08:44:01;;;;;;;;;0.00;0.00;;;;;;;;5093009;27;45537;-79
2023/09/29 08:46:27;;;;;;;;;0.00;0.00;;;;;;;;5085954;27;45293;-79
2023/09/29 08:48:54;;;;;;;;;0.00;0.00;;;;;;;;5091038;27;45844;-81
2023/09/29 08:51:20;;;;;;;;;0.00;0.00;;;;;;;;5090128;27;45441;-82
2023/09/29 08:53:50;;;;;;;;;0.25;0.25;;;;;;;;5083427;27;45423;-82
2023/09/29 08:56:18;;;;;;;;;0.00;0.00;;;;;;;;5090563;27;45449;-81
2023/09/29 08:58:45;;;;;;;;;1.00;0.00;;;;;;;;5081514;27;46664;-81
2023/09/29 09:01:14;;;;;;;;;0.00;0.00;;;;;;;;5082428;27;46132;-82
2023/09/29 09:03:40;;;;;;;;;0.25;0.25;;;;;;;;5093009;27;45377;-81
2023/09/29 09:06:20;;;;;;;;;0.00;0.00;;;;;;;;5094390;27;45870;-82
2023/09/29 09:08:45;;;;;;;;;1.50;0.00;;;;;;;;5082000;28;45859;-81
2023/09/29 09:11:23;;;;;;;;;0.00;0.00;;;;;;;;5093011;27;45342;-82
2023/09/29 09:14:10;;;;;;;;;0.00;0.00;;;;;;;;5086513;27;45380;-82
2023/09/29 09:16:50;;;;;;;;;0.00;0.00;;;;;;;;5084575;27;45571;-83
2023/09/29 09:19:20;;;;;;;;;0.50;0.00;;;;;;;;5084509;27;45511;-82
2023/09/29 09:21:46;;;;;;;;;0.00;0.00;;;;;;;;5093104;27;45408;-81
2023/09/29 09:24:18;;;;;;;;;1.00;0.00;;;;;;;;5094428;27;45099;-82
2023/09/29 09:26:53;;;;;;;;;0.00;0.00;;;;;;;;5072131;27;44840;-83
2023/09/29 09:29:19;;;;;;;;;1.00;1.00;;;;;;;;5085997;27;47497;-84
2023/09/29 09:31:52;;;;;;;;;0.00;0.00;;;;;;;;5092977;27;45355;-82
2023/09/29 09:34:18;;;;;;;;;0.00;0.00;;;;;;;;5098426;27;45403;-82
2023/09/29 09:36:47;;;;;;;;;0.00;0.00;;;;;;;;5080683;28;46546;-82
2023/09/29 09:39:22;;;;;;;;;1.00;1.00;;;;;;;;5093756;27;46284;-83
2023/09/29 09:41:57;;;;;;;;;0.75;0.75;;;;;;;;5084757;27;45786;-82
2023/09/29 09:44:23;;;;;;;;;0.00;0.00;;;;;;;;5087398;27;45500;-83
2023/09/29 09:46:53;;;;;;;;;1.50;0.00;;;;;;;;5067011;27;45170;-82
2023/09/29 09:49:22;;;;;;;;;0.75;0.75;;;;;;;;5089008;27;46440;-83
2023/09/29 09:51:52;;;;;;;;;0.00;0.00;;;;;;;;5073759;27;45323;-83
2023/09/29 09:54:24;;;;;;;;;3.25;2.25;;;;;;;;5078228;27;45729;-83
2023/09/29 09:56:55;;;;;;;;;0.25;0.25;;;;;;;;5086286;27;45960;-81
2023/09/29 09:59:28;;;;;;;;;0.00;0.00;;;;;;;;5088103;27;47886;-82
2023/09/29 10:01:55;;;;;;;;;2.00;0.00;;;;;;;;5083925;27;45623;-82
2023/09/29 10:04:20;;;;;;;;;1.00;1.00;;;;;;;;5075659;28;45713;-83
2023/09/29 10:06:49;;;;;;;;;0.75;0.75;;;;;;;;5090946;27;45097;-82
2023/09/29 10:09:14;;;;;;;;;2.00;1.00;;;;;;;;5081905;27;46072;-80
2023/09/29 10:11:42;;;;;;;;;1.00;0.00;;;;;;;;5083925;27;45781;-81
2023/09/29 10:14:10;;;;;;;;;3.00;0.25;;;;;;;;5084056;27;45497;-82
2023/09/29 10:16:36;;;;;;;;;1.50;0.75;;;;;;;;5089880;27;45533;-84
2023/09/29 10:19:12;;;;;;;;;3.00;2.00;;;;;;;;5084767;27;45862;-83
2023/09/29 10:21:42;;;;;;;;;1.00;1.00;;;;;;;;5087679;27;45320;-81
2023/09/29 10:24:17;;;;;;;;;0.50;0.50;;;;;;;;5082374;27;45091;-82
2023/09/29 10:26:44;;;;;;;;;1.25;1.00;;;;;;;;5089033;27;45525;-83
2023/09/29 10:41:25;;;;;;;;;2.00;1.00;;;;;26.55;100.00;101609.94;5092908;27;45807;-70
2023/09/29 10:43:51;;;;;;;;;2.00;2.00;;;;;26.68;100.00;101614.09;5063394;27;45289;-70
2023/09/29 10:46:24;;;;;;;;;1.00;1.00;;;;;26.56;100.00;101597.56;5079678;27;45838;-69
2023/09/29 10:48:53;;;;;;;;;0.75;0.00;;;;;26.50;100.00;101611.97;5066640;27;45519;-69
2023/09/29 10:51:30;;;;;;;;;2.25;1.25;;;;;26.45;100.00;101621.28;5062667;28;46826;-68
2023/09/29 10:54:02;;;;;;;;;2.75;1.00;;;;;26.27;100.00;101616.41;5066936;27;45589;-69
2023/09/29 10:56:28;;;;;;;;;2.25;0.50;;;;;26.03;100.00;101619.97;5063998;27;45899;-71
2023/09/29 10:58:55;;;;;;;;;2.00;1.00;;;;;26.07;100.00;101621.91;5062725;27;45510;-71
2023/09/29 11:01:30;;;;;;;;;2.00;1.00;;;;;26.02;100.00;101629.56;5063332;28;46470;-69
2023/09/29 11:03:56;;;;;;;;;2.00;1.00;;;;;26.02;100.00;101627.56;5062656;27;45600;-70
2023/09/29 11:06:23;;;;;;;;;1.00;1.00;;;;;25.97;100.00;101609.88;5063656;28;45839;-69
2023/09/29 11:08:53;;;;;;;;;2.00;2.00;;;;;26.45;100.00;101638.19;5061659;27;45901;-69
2023/09/29 11:11:36;;;;;;;;;1.75;0.25;;;;;26.46;100.00;101634.25;5071179;27;46691;-70
2023/09/29 11:14:04;;;;;;;;;2.00;0.75;;;;;26.48;100.00;101636.75;5065409;27;45406;-70
2023/09/29 11:16:31;;;;;;;;;0.00;0.00;;;;;26.49;100.00;101632.81;5060864;27;45977;-69
2023/09/29 11:19:10;;;;;;;;;3.75;1.00;;;;;26.32;100.00;101634.09;5063846;27;45510;-69
2023/09/29 11:21:37;;;;;;;;;1.00;1.00;;;;;26.21;100.00;101650.22;5054548;27;46096;-69
2023/09/29 11:24:07;;;;;;;;;2.25;1.00;;;;;26.18;100.00;101648.00;5057816;28;45778;-68
2023/09/29 11:26:33;;;;;;;;;1.00;1.00;;;;;26.15;100.00;101648.53;5050359;27;45593;-70
2023/09/29 11:28:59;;;;;;;;;0.50;0.50;;;;;26.06;100.00;101650.31;5058519;28;45360;-69
2023/09/29 11:31:25;;;;;;;;;1.00;1.00;;;;;25.93;100.00;101642.50;5084842;22;46409;-79
2023/09/29 11:33:51;;;;;;;;;2.50;1.00;;;;;25.87;100.00;101656.59;5075748;28;45520;-78
2023/09/29 11:36:27;;;;;;;;;1.00;1.00;;;;;25.85;100.00;101661.66;5078711;27;45516;-78
2023/09/29 11:38:52;;;;;;;;;0.75;0.75;;;;;25.92;100.00;101663.31;5058368;28;45899;-80
2023/09/29 11:41:18;;;;;;;;;2.00;2.00;;;;;25.88;100.00;101649.84;5034108;28;48505;-77
2023/09/29 11:43:45;;;;;;;;;1.25;1.00;;;;;26.02;100.00;101657.66;5042489;28;45308;-77
2023/09/29 11:46:13;;;;;;;;;3.00;2.00;;;;;25.95;100.00;101668.34;5037841;28;45359;-78
2023/09/29 11:48:40;;;;;;;;;3.25;2.00;;;;;25.94;100.00;101655.41;5039114;28;46053;-79
2023/09/29 11:51:08;;;;;;;;;4.00;2.25;;;;;26.02;100.00;101672.53;5030930;28;47179;-79
2023/09/29 11:53:34;;;;;;;;;3.00;1.75;;;;;25.97;100.00;101677.31;5035062;28;45402;-79
2023/09/29 11:56:00;;;;;;;;;2.25;0.50;;;;;25.86;100.00;101680.19;5038999;28;45781;-79
2023/09/29 11:58:26;;;;;;;;;0.50;0.00;;;;;25.84;100.00;101688.09;5049541;28;45845;-78
2023/09/29 12:00:52;;;;;;;;;1.75;0.75;;;;;25.67;100.00;101690.41;5037216;28;45530;-78
2023/09/29 12:03:21;;;;;;;;;4.00;1.75;;;;;25.59;100.00;101699.44;5033449;28;45512;-78
2023/09/29 12:05:49;;;;;;;;;2.00;2.00;;;;;25.47;100.00;101696.97;5041615;28;45541;-78
2023/09/29 12:08:15;;;;;;;;;2.00;2.00;;;;;25.38;100.00;101702.31;5045802;28;45158;-79
2023/09/29 12:10:41;;;;;;;;;6.25;2.50;;;;;25.31;100.00;101702.63;5031638;28;45355;-80
2023/09/29 12:13:06;;;;;;;;;2.50;2.50;;;;;25.23;100.00;101705.16;5037071;28;45523;-80
2023/09/29 12:15:32;;;;;;;;;2.75;1.50;;;;;25.10;100.00;101713.03;5040458;28;45574;-78
2023/09/29 12:17:59;;;;;;;;;2.50;1.25;;;;;25.07;100.00;101709.97;5037953;28;46425;-78
2023/09/29 12:20:26;;;;;;;;;3.75;1.00;;;;;25.07;100.00;101710.78;5035116;28;47166;-78
2023/09/29 12:22:51;;;;;;;;;2.25;2.25;;;;;24.95;100.00;101702.66;5031948;28;45485;-81
2023/09/29 12:25:17;;;;;;;;;3.25;2.50;;;;;24.93;99.87;101704.94;5039554;28;45429;-80
2023/09/29 12:27:44;;;;;;;;;2.25;2.25;;;;;24.79;99.51;101707.47;5040232;28;45719;-81
2023/09/29 12:30:12;;;;;;;;;1.00;1.00;;;;;24.74;99.08;101718.69;5036619;28;45352;-82
2023/09/29 12:32:42;;;;;;;;;2.75;2.00;;;;;24.56;99.75;101708.00;5046358;28;45622;-79
2023/09/29 12:35:09;;;;;;;;;1.75;1.75;;;;;24.63;100.00;101719.81;5032591;28;45208;-78
2023/09/29 12:37:35;;;;;;;;;2.00;2.00;;;;;24.59;100.00;101715.88;5040992;28;45549;-79
2023/09/29 12:40:01;;;;;;;;;2.75;1.50;;;;;24.60;100.00;101712.81;5031120;28;46942;-79
2023/09/29 12:42:26;;;;;;;;;5.25;2.50;;;;;24.62;100.00;101706.91;5039082;28;45377;-81
2023/09/29 12:44:52;;;;;;;;;2.75;1.75;;;;;24.58;99.47;101708.56;5033395;28;46350;-78
2023/09/29 12:47:18;;;;;;;;;4.00;2.00;;;;;24.56;99.42;101706.03;5034104;28;46658;-79
2023/09/29 12:49:43;;;;;;;;;3.50;2.75;;;;;24.47;99.54;101702.09;5025271;28;45647;-83
2023/09/29 12:52:09;;;;;;;;;2.50;2.50;;;;;24.52;100.00;101710.50;5012213;28;45886;-80
2023/09/29 12:54:41;;;;;;;;;3.00;2.00;;;;;24.53;100.00;101705.75;5031064;28;45948;-80
2023/09/29 12:57:07;;;;;;;;;2.00;2.00;;;;;24.50;99.54;101713.59;5035320;28;45350;-79
2023/09/29 12:59:36;;;;;;;;;4.25;3.25;;;;;24.47;98.81;101700.13;5041340;28;45647;-79
2023/09/29 13:02:09;;;;;;;;;5.00;3.00;;;;;24.38;96.55;101713.03;5041318;28;45737;-82
2023/09/29 13:04:38;;;;;;;;;3.75;2.75;;;;;24.25;95.78;101706.03;5039729;28;45713;-82
2023/09/29 13:07:04;;;;;;;;;3.25;3.25;;;;;24.23;95.40;101704.59;5037163;28;45336;-81
2023/09/29 13:09:31;;;;;;;;;5.25;3.00;;;;;24.35;96.32;101712.75;5038242;28;46918;-80
2023/09/29 13:11:56;;;;;;;;;2.00;2.00;;;;;24.39;96.27;101705.47;5040273;28;45432;-81
2023/09/29 13:14:23;;;;;;;;;6.75;3.25;;;;;24.41;95.64;101709.66;5026918;28;45523;-81
2023/09/29 13:16:49;;;;;;;;;9.25;4.00;;;;;24.42;94.76;101710.53;5036109;28;45244;-80
2023/09/29 13:19:14;;;;;;;;;5.50;4.00;;;;;24.39;92.84;101703.50;5037021;28;46928;-79
2023/09/29 13:21:40;;;;;;;;;4.00;3.00;;;;;24.32;92.20;101705.75;5047140;28;45447;-79
2023/09/29 13:24:06;;;;;;;;;3.25;2.75;;;;;24.27;89.65;101700.13;5042354;28;45503;-79
2023/09/29 13:26:32;;;;;;;;;2.50;1.50;;;;;24.21;88.32;101709.66;5034158;28;45516;-82
2023/09/29 13:28:57;;;;;;;;;5.00;3.00;;;;;24.26;89.06;101716.09;5038363;28;47236;-79
2023/09/29 13:31:22;;;;;;;;;2.75;2.75;;;;;24.17;89.10;101697.31;5034956;28;45424;-80
2023/09/29 13:33:50;;;;;;;;;5.25;2.50;;;;;24.29;90.32;101711.91;5034652;28;45546;-81
2023/09/29 13:36:17;;;;;;;;;4.00;0.50;;;;;24.19;91.70;101695.06;5038400;28;45743;-80
2023/09/29 13:38:43;;;;;;;;;3.50;2.00;;;;;24.18;92.83;101684.97;5040681;28;45354;-80
2023/09/29 13:41:08;;;;;;;;;5.75;4.00;;;;;24.27;92.48;101706.56;5038522;28;45625;-80
2023/09/29 13:43:34;;;;;;;;;2.00;1.50;;;;;24.25;90.68;101708.81;5052609;28;45413;-81
2023/09/29 13:45:59;;;;;;;;;5.00;3.50;;;;;24.33;91.45;101721.44;5043975;28;45530;-81
2023/09/29 13:48:24;;;;;;;;;2.25;1.00;;;;;24.29;90.27;101714.69;5052526;28;46801;-82
2023/09/29 13:50:50;;;;;;;;;5.50;3.25;;;;;24.44;90.58;101745.56;5062167;28;45843;-82
2023/09/29 13:53:17;;;;;;;;;5.00;3.00;;;;;24.52;90.14;101743.34;5047760;28;45358;-80
2023/09/29 13:55:43;;;;;;;;;3.00;3.00;;;;;24.47;89.50;101749.78;5036617;28;45603;-82
2023/09/29 13:58:08;;;;;;;;;3.00;2.00;;;;;24.50;89.10;101747.25;5034918;28;46274;-81
2023/09/29 14:00:34;;;;;;;;;6.00;1.50;;;;;24.48;88.82;101740.25;5038162;28;45793;-81
2023/09/29 14:03:01;;;;;;;;;3.00;1.75;;;;;24.62;88.54;101760.19;5032768;28;45470;-81
2023/09/29 14:05:27;;;;;;;;;2.50;1.25;;;;;24.57;88.11;101732.13;5033581;28;46898;-82
2023/09/29 14:07:54;;;;;;;;;3.50;2.50;;;;;24.74;86.91;101749.53;5037299;28;47630;-82
2023/09/29 14:10:20;;;;;;;;;6.00;3.50;;;;;24.84;87.22;101757.13;5036748;28;45531;-81